Observation data for Hart on 08/14/2019      Previous  Date  Next       Current Mesonet Observations  Soil Data  Daily Summary Page  Observations in Plain Language
KHRS 140500Z 10007KT 22/17 A3017 RMK A01 T02160170  RH  077%=      5-min Rain = 0
KHRS 140505Z 10007KT 22/17 A3017 RMK A01 T02170169  RH  076%=      5-min Rain = 0
KHRS 140510Z 11007KT 22/17 A3017 RMK A01 T02190170  RH  075%=      5-min Rain = 0
KHRS 140515Z 11007KT 22/17 A3016 RMK A01 T02210170  RH  075%=      5-min Rain = 0
KHRS 140520Z 10007KT 22/17 A3017 RMK A01 T02200170  RH  075%=      5-min Rain = 0
KHRS 140525Z 10007KT 22/17 A3017 RMK A01 T02190170  RH  075%=      5-min Rain = 0
KHRS 140530Z 09007KT 22/17 A3017 RMK A01 T02170170  RH  076%=      5-min Rain = 0
KHRS 140535Z 09006KT 22/17 A3017 RMK A01 T02150170  RH  077%=      5-min Rain = 0
KHRS 140540Z 08007KT 21/17 A3017 RMK A01 T02140170  RH  078%=      5-min Rain = 0
KHRS 140545Z 08007KT 21/17 A3017 RMK A01 T02140171  RH  078%=      5-min Rain = 0
KHRS 140550Z 07007KT 21/17 A3018 RMK A01 T02140171  RH  078%=      5-min Rain = 0
KHRS 140555Z 07008KT 21/17 A3018 RMK A01 T02140171  RH  079%=      5-min Rain = 0
KHRS 140600Z 06009KT 22/17 A3018 RMK A01 T02150171  RH  078%=      5-min Rain = 0
KHRS 140605Z 06009KT 22/17 A3019 RMK A01 T02170171  RH  077%=      5-min Rain = 0
KHRS 140610Z 07009KT 22/17 A3019 RMK A01 T02170172  RH  077%=      5-min Rain = 0
KHRS 140615Z 07009KT 22/17 A3019 RMK A01 T02180173  RH  077%=      5-min Rain = 0
KHRS 140620Z 07010KT 22/17 A3019 RMK A01 T02180174  RH  078%=      5-min Rain = 0
KHRS 140625Z 07011KT 22/18 A302 RMK A01 T02200175  RH  077%=      5-min Rain = 0
KHRS 140630Z 07013KT 22/18 A302 RMK A01 T02230175  RH  076%=      5-min Rain = 0
KHRS 140635Z 07013KT 22/18 A302 RMK A01 T02240175  RH  076%=      5-min Rain = 0
KHRS 140640Z 06012G17KT 22/18 A302 RMK A01 T02240175  RH  075%=      5-min Rain = 0
KHRS 140645Z 07012G17KT 22/18 A302 RMK A01 T02240175  RH  075%=      5-min Rain = 0
KHRS 140650Z 08011G16KT 22/17 A302 RMK A01 T02240174  RH  075%=      5-min Rain = 0
KHRS 140655Z 08011KT 22/17 A3019 RMK A01 T02240174  RH  075%=      5-min Rain = 0
KHRS 140700Z 07011G16KT 22/17 A3019 RMK A01 T02230174  RH  075%=      5-min Rain = 0
KHRS 140705Z 07011KT 22/17 A302 RMK A01 T02230174  RH  076%=      5-min Rain = 0
KHRS 140710Z 07010KT 22/17 A302 RMK A01 T02230173  RH  075%=      5-min Rain = 0
KHRS 140715Z 07009KT 22/17 A302 RMK A01 T02220173  RH  076%=      5-min Rain = 0
KHRS 140720Z 07009KT 22/17 A3019 RMK A01 T02210173  RH  076%=      5-min Rain = 0
KHRS 140725Z 07010KT 22/17 A3019 RMK A01 T02200173  RH  076%=      5-min Rain = 0
KHRS 140730Z 07009KT 22/17 A3019 RMK A01 T02190172  RH  076%=      5-min Rain = 0
KHRS 140735Z 07009KT 22/17 A3019 RMK A01 T02180172  RH  077%=      5-min Rain = 0
KHRS 140740Z 06009KT 22/17 A3019 RMK A01 T02170172  RH  077%=      5-min Rain = 0
KHRS 140745Z 06010KT 22/17 A3019 RMK A01 T02180171  RH  077%=      5-min Rain = 0
KHRS 140750Z 06011KT 22/17 A3019 RMK A01 T02180171  RH  076%=      5-min Rain = 0
KHRS 140755Z 07009KT 22/17 A3019 RMK A01 T02190170  RH  076%=      5-min Rain = 0
KHRS 140800Z 07009KT 22/17 A3018 RMK A01 T02180170  RH  076%=      5-min Rain = 0
KHRS 140805Z 07010KT 22/17 A3019 RMK A01 T02170170  RH  076%=      5-min Rain = 0
KHRS 140810Z 07009G14KT 22/17 A3019 RMK A01 T02180170  RH  076%=      5-min Rain = 0
KHRS 140815Z 07008KT 22/17 A3019 RMK A01 T02160169  RH  077%=      5-min Rain = 0
KHRS 140820Z 07008KT 22/17 A3019 RMK A01 T02150170  RH  077%=      5-min Rain = 0
KHRS 140825Z 07008KT 21/17 A3019 RMK A01 T02130170  RH  078%=      5-min Rain = 0
KHRS 140830Z 06008KT 21/17 A3019 RMK A01 T02130170  RH  078%=      5-min Rain = 0
KHRS 140835Z 07007KT 21/17 A3018 RMK A01 T02120170  RH  079%=      5-min Rain = 0
KHRS 140840Z 05009G18KT 21/17 A3019 RMK A01 T02100169  RH  079%=      5-min Rain = 0
KHRS 140845Z 05012G18KT 21/17 A3019 RMK A01 T02100169  RH  079%=      5-min Rain = 0
KHRS 140850Z 05012G17KT 21/17 A3019 RMK A01 T02100169  RH  079%=      5-min Rain = 0
KHRS 140855Z 05011G18KT 21/17 A3019 RMK A01 T02080169  RH  080%=      5-min Rain = 0
KHRS 140900Z 05012KT 21/17 A3019 RMK A01 T02060167  RH  080%=      5-min Rain = 0
KHRS 140905Z 05011G16KT 21/16 A302 RMK A01 T02050164  RH  079%=      5-min Rain = 0
KHRS 140910Z 05012KT 21/16 A302 RMK A01 T02050164  RH  079%=      5-min Rain = 0
KHRS 140915Z 05011G16KT 20/16 A3021 RMK A01 T02040163  RH  080%=      5-min Rain = 0
KHRS 140920Z 05014G20KT 20/16 A3021 RMK A01 T02020160  RH  079%=      5-min Rain = 0
KHRS 140925Z 04012G18KT 20/15 A3021 RMK A01 T02010154  RH  076%=      5-min Rain = 0
KHRS 140930Z 04013G18KT 20/15 A3021 RMK A01 T01990151  RH  075%=      5-min Rain = 0
KHRS 140935Z 05011G16KT 20/15 A3021 RMK A01 T01970149  RH  076%=      5-min Rain = 0
KHRS 140940Z 04012KT 20/15 A3021 RMK A01 T01960147  RH  075%=      5-min Rain = 0
KHRS 140945Z 04011G16KT 20/15 A3021 RMK A01 T01950145  RH  075%=      5-min Rain = 0
KHRS 140950Z 04011KT 19/14 A3022 RMK A01 T01930143  RH  074%=      5-min Rain = 0
KHRS 140955Z 04011KT 19/14 A3022 RMK A01 T01920142  RH  074%=      5-min Rain = 0
KHRS 141000Z 03012KT 19/14 A3022 RMK A01 T01910143  RH  075%=      5-min Rain = 0
KHRS 141005Z 03013G19KT 19/14 A3022 RMK A01 T01900141  RH  075%=      5-min Rain = 0
KHRS 141010Z 03013G18KT 19/14 A3023 RMK A01 T01880137  RH  074%=      5-min Rain = 0
KHRS 141015Z 03012G18KT 19/14 A3022 RMK A01 T01860136  RH  074%=      5-min Rain = 0
KHRS 141020Z 03011KT 19/13 A3022 RMK A01 T01850134  RH  073%=      5-min Rain = 0
KHRS 141025Z 03012KT 19/13 A3023 RMK A01 T01850132  RH  073%=      5-min Rain = 0
KHRS 141030Z 03010KT 18/13 A3023 RMK A01 T01840133  RH  073%=      5-min Rain = 0
KHRS 141035Z 03009KT 18/13 A3023 RMK A01 T01840133  RH  074%=      5-min Rain = 0
KHRS 141040Z 03010G15KT 18/13 A3024 RMK A01 T01840132  RH  073%=      5-min Rain = 0
KHRS 141045Z 03011KT 18/13 A3023 RMK A01 T01840131  RH  072%=      5-min Rain = 0
KHRS 141050Z 04010KT 18/13 A3023 RMK A01 T01840130  RH  072%=      5-min Rain = 0
KHRS 141055Z 03010KT 18/13 A3023 RMK A01 T01830129  RH  072%=      5-min Rain = 0
KHRS 141100Z 03011KT 18/13 A3023 RMK A01 T01820127  RH  072%=      5-min Rain = 0
KHRS 141105Z 03012KT 18/13 A3023 RMK A01 T01830126  RH  071%=      5-min Rain = 0
KHRS 141110Z 03011KT 18/13 A3024 RMK A01 T01830126  RH  071%=      5-min Rain = 0
KHRS 141115Z 03010KT 18/13 A3024 RMK A01 T01820126  RH  071%=      5-min Rain = 0
KHRS 141120Z 02010KT 18/13 A3024 RMK A01 T01820126  RH  071%=      5-min Rain = 0
KHRS 141125Z 03009KT 18/13 A3024 RMK A01 T01810126  RH  071%=      5-min Rain = 0
KHRS 141130Z 03009KT 18/13 A3025 RMK A01 T01810126  RH  072%=      5-min Rain = 0
KHRS 141135Z 03008KT 18/13 A3025 RMK A01 T01820126  RH  071%=      5-min Rain = 0
KHRS 141140Z 03008KT 18/13 A3025 RMK A01 T01840126  RH  071%=      5-min Rain = 0
KHRS 141145Z 03008KT 19/13 A3025 RMK A01 T01860127  RH  070%=      5-min Rain = 0
KHRS 141150Z 03007KT 19/13 A3026 RMK A01 T01870128  RH  070%=      5-min Rain = 0
KHRS 141155Z 02010KT 19/13 A3027 RMK A01 T01880127  RH  069%=      5-min Rain = 0
KHRS 141200Z 03011G17KT 19/13 A3027 RMK A01 T01910127  RH  068%=      5-min Rain = 0
KHRS 141205Z 03012G18KT 19/13 A3027 RMK A01 T01920127  RH  067%=      5-min Rain = 0
KHRS 141210Z 04010KT 19/13 A3026 RMK A01 T01910126  RH  067%=      5-min Rain = 0
KHRS 141215Z 04010G16KT 19/13 A3026 RMK A01 T01890127  RH  068%=      5-min Rain = 0
KHRS 141220Z 05009G14KT 19/13 A3026 RMK A01 T01870126  RH  069%=      5-min Rain = 0
KHRS 141225Z 04009KT 19/13 A3026 RMK A01 T01850126  RH  070%=      5-min Rain = 0
KHRS 141230Z 03009KT 18/13 A3027 RMK A01 T01840126  RH  071%=      5-min Rain = 0
KHRS 141235Z 03009KT 18/13 A3028 RMK A01 T01840127  RH  071%=      5-min Rain = 0
KHRS 141240Z 03008G13KT 18/13 A3028 RMK A01 T01840127  RH  071%=      5-min Rain = 0
KHRS 141245Z 02009G14KT 18/13 A3029 RMK A01 T01830127  RH  071%=      5-min Rain = 0
KHRS 141250Z 02008KT 18/13 A3029 RMK A01 T01830128  RH  072%=      5-min Rain = 0
KHRS 141255Z 03008KT 18/13 A3029 RMK A01 T01840129  RH  072%=      5-min Rain = 0
KHRS 141300Z 02010KT 19/13 A303 RMK A01 T01850129  RH  071%=      5-min Rain = 0
KHRS 141305Z 02010KT 19/13 A303 RMK A01 T01870129  RH  071%=      5-min Rain = 0
KHRS 141310Z 02010KT 19/13 A303 RMK A01 T01880129  RH  070%=      5-min Rain = 0
KHRS 141315Z 02010KT 19/13 A303 RMK A01 T01870129  RH  070%=      5-min Rain = 0
KHRS 141320Z 01009KT 19/13 A303 RMK A01 T01880129  RH  070%=      5-min Rain = 0
KHRS 141325Z 02008KT 19/13 A303 RMK A01 T01890131  RH  070%=      5-min Rain = 0
KHRS 141330Z 02007KT 19/13 A303 RMK A01 T01920132  RH  070%=      5-min Rain = 0
KHRS 141335Z 01007KT 20/13 A3031 RMK A01 T01960134  RH  069%=      5-min Rain = 0
KHRS 141340Z 00008KT 20/14 A3031 RMK A01 T02020136  RH  067%=      5-min Rain = 0
KHRS 141345Z 36008KT 20/14 A3032 RMK A01 T02030136  RH  066%=      5-min Rain = 0
KHRS 141350Z 00008KT 20/13 A3031 RMK A01 T02040134  RH  065%=      5-min Rain = 0
KHRS 141355Z 00008KT 21/14 A3031 RMK A01 T02060135  RH  065%=      5-min Rain = 0
KHRS 141400Z 36006KT 21/13 A3031 RMK A01 T02080133  RH  064%=      5-min Rain = 0
KHRS 141405Z 00006KT 21/13 A3031 RMK A01 T02070130  RH  062%=      5-min Rain = 0
KHRS 141410Z 01005KT 21/13 A3031 RMK A01 T02060131  RH  063%=      5-min Rain = 0
KHRS 141415Z 02005KT 20/13 A303 RMK A01 T02040131  RH  064%=      5-min Rain = 0
KHRS 141420Z 02004KT 20/13 A303 RMK A01 T02030132  RH  065%=      5-min Rain = 0
KHRS 141425Z 02002KT 20/13 A303 RMK A01 T02030133  RH  065%=      5-min Rain = 0
KHRS 141430Z 02002KT 20/13 A3029 RMK A01 T02030132  RH  065%=      5-min Rain = 0
KHRS 141435Z 02000KT 20/13 A3029 RMK A01 T02040130  RH  064%=      5-min Rain = 0
KHRS 141440Z 10001KT 21/13 A3028 RMK A01 T02060130  RH  063%=      5-min Rain = 0
KHRS 141445Z 12004KT 21/13 A3027 RMK A01 T02070134  RH  064%=      5-min Rain = 0
KHRS 141450Z 13004KT 21/14 A3027 RMK A01 T02070135  RH  064%=      5-min Rain = 0
KHRS 141455Z 19002KT 21/13 A3027 RMK A01 T02090132  RH  063%=      5-min Rain = 0
KHRS 141500Z 26004KT 21/14 A3028 RMK A01 T02110138  RH  064%=      5-min Rain = 0
KHRS 141505Z 26004KT 21/14 A3027 RMK A01 T02120136  RH  063%=      5-min Rain = 0
KHRS 141510Z 25002KT 22/13 A3027 RMK A01 T02150131  RH  060%=      5-min Rain = 0
KHRS 141515Z 24002KT 22/13 A3026 RMK A01 T02160129  RH  059%=      5-min Rain = 0
KHRS 141520Z 20004KT 22/13 A3026 RMK A01 T02190131  RH  059%=      5-min Rain = 0
KHRS 141525Z 19003KT 22/13 A3025 RMK A01 T02190133  RH  059%=      5-min Rain = 0
KHRS 141530Z 21004KT 22/14 A3025 RMK A01 T02190135  RH  060%=      5-min Rain = 0
KHRS 141535Z 16005KT 22/13 A3024 RMK A01 T02200132  RH  058%=      5-min Rain = 0
KHRS 141540Z 16005KT 22/13 A3025 RMK A01 T02210132  RH  058%=      5-min Rain = 0
KHRS 141545Z 16005KT 22/14 A3025 RMK A01 T02240138  RH  059%=      5-min Rain = 0
KHRS 141550Z 15004KT 22/14 A3026 RMK A01 T02240140  RH  060%=      5-min Rain = 0
KHRS 141555Z 13004KT 23/14 A3026 RMK A01 T02250143  RH  061%=      5-min Rain = 0
KHRS 141600Z 07005KT 23/15 A3025 RMK A01 T02310146  RH  060%=      5-min Rain = 0
KHRS 141605Z 06008KT 23/14 A3025 RMK A01 T02320137  RH  056%=      5-min Rain = 0
KHRS 141610Z 06007KT 23/14 A3025 RMK A01 T02340140  RH  057%=      5-min Rain = 0
KHRS 141615Z 06007KT 24/14 A3025 RMK A01 T02430139  RH  053%=      5-min Rain = 0
KHRS 141620Z 06007G12KT 25/14 A3025 RMK A01 T02480135  RH  050%=      5-min Rain = 0
KHRS 141625Z 06009KT 25/13 A3025 RMK A01 T02510130  RH  048%=      5-min Rain = 0
KHRS 141630Z 06008KT 25/13 A3025 RMK A01 T02470130  RH  049%=      5-min Rain = 0
KHRS 141635Z 06007KT 25/13 A3024 RMK A01 T02520129  RH  047%=      5-min Rain = 0
KHRS 141640Z 05008KT 26/13 A3025 RMK A01 T02580134  RH  047%=      5-min Rain = 0
KHRS 141645Z 07007KT 26/13 A3025 RMK A01 T02610128  RH  045%=      5-min Rain = 0
KHRS 141650Z 07006KT 27/13 A3025 RMK A01 T02670128  RH  043%=      5-min Rain = 0
KHRS 141655Z 06005KT 27/13 A3025 RMK A01 T02710132  RH  043%=      5-min Rain = 0
KHRS 141700Z 05008KT 27/13 A3025 RMK A01 T02720133  RH  043%=      5-min Rain = 0
KHRS 141705Z 05009KT 27/13 A3025 RMK A01 T02730131  RH  042%=      5-min Rain = 0
KHRS 141710Z 07008KT 28/13 A3025 RMK A01 T02770131  RH  041%=      5-min Rain = 0
KHRS 141715Z 06009KT 28/13 A3025 RMK A01 T02820131  RH  040%=      5-min Rain = 0
KHRS 141720Z 04008G14KT 28/13 A3026 RMK A01 T02830128  RH  039%=      5-min Rain = 0
KHRS 141725Z 03008G13KT 29/12 A3026 RMK A01 T02860123  RH  037%=      5-min Rain = 0
KHRS 141730Z 02012KT 28/12 A3026 RMK A01 T02770118  RH  038%=      5-min Rain = 0
KHRS 141735Z 03010G15KT 27/12 A3026 RMK A01 T02720120  RH  039%=      5-min Rain = 0
KHRS 141740Z 03010G15KT 27/12 A3025 RMK A01 T02690122  RH  041%=      5-min Rain = 0
KHRS 141745Z 02014G21KT 27/12 A3025 RMK A01 T02690118  RH  040%=      5-min Rain = 0
KHRS 141750Z 02014G19KT 27/12 A3025 RMK A01 T02690116  RH  039%=      5-min Rain = 0
KHRS 141755Z 01012KT 28/12 A3025 RMK A01 T02780118  RH  038%=      5-min Rain = 0
KHRS 141800Z 02008G13KT 28/12 A3025 RMK A01 T02820116  RH  037%=      5-min Rain = 0
KHRS 141805Z 04010KT 28/12 A3025 RMK A01 T02840117  RH  036%=      5-min Rain = 0
KHRS 141810Z 05010G15KT 29/12 A3025 RMK A01 T02850123  RH  037%=      5-min Rain = 0
KHRS 141815Z 06007G13KT 29/12 A3025 RMK A01 T02870123  RH  037%=      5-min Rain = 0
KHRS 141820Z 04011G17KT 29/12 A3025 RMK A01 T02880122  RH  036%=      5-min Rain = 0
KHRS 141825Z 04008G13KT 29/13 A3025 RMK A01 T02900126  RH  037%=      5-min Rain = 0
KHRS 141830Z 03010G17KT 29/13 A3025 RMK A01 T02920125  RH  036%=      5-min Rain = 0
KHRS 141835Z 02009G14KT 29/12 A3025 RMK A01 T02940118  RH  034%=      5-min Rain = 0
KHRS 141840Z 02007G14KT 29/12 A3024 RMK A01 T02940118  RH  034%=      5-min Rain = 0
KHRS 141845Z 01008G14KT 29/12 A3024 RMK A01 T02930119  RH  035%=      5-min Rain = 0
KHRS 141850Z 04004G10KT 29/11 A3024 RMK A01 T02940114  RH  033%=      5-min Rain = 0
KHRS 141855Z 06005G12KT 29/12 A3024 RMK A01 T02940116  RH  034%=      5-min Rain = 0
KHRS 141900Z 07008G14KT 30/12 A3023 RMK A01 T02970122  RH  035%=      5-min Rain = 0
KHRS 141905Z 11006KT 30/11 A3023 RMK A01 T02990113  RH  032%=      5-min Rain = 0
KHRS 141910Z 08005KT 30/12 A3023 RMK A01 T03030120  RH  033%=      5-min Rain = 0
KHRS 141915Z 08005KT 30/12 A3022 RMK A01 T03020122  RH  034%=      5-min Rain = 0
KHRS 141920Z 08005G11KT 31/13 A3022 RMK A01 T03060125  RH  034%=      5-min Rain = 0
KHRS 141925Z 10006KT 30/12 A3022 RMK A01 T03020115  RH  032%=      5-min Rain = 0
KHRS 141930Z 09007KT 30/12 A3021 RMK A01 T03010120  RH  033%=      5-min Rain = 0
KHRS 141935Z 11007KT 30/11 A3021 RMK A01 T03020110  RH  031%=      5-min Rain = 0
KHRS 141940Z 16002KT 30/11 A302 RMK A01 T03040105  RH  030%=      5-min Rain = 0
KHRS 141945Z 12006G11KT 31/11 A302 RMK A01 T03100109  RH  030%=      5-min Rain = 0
KHRS 141950Z 11006KT 31/11 A302 RMK A01 T03100108  RH  029%=      5-min Rain = 0
KHRS 141955Z 14004G9KT 31/11 A3019 RMK A01 T03080106  RH  029%=      5-min Rain = 0
KHRS 142000Z 14006KT 31/11 A3019 RMK A01 T03100105  RH  029%=      5-min Rain = 0
KHRS 142005Z 15005G12KT 31/11 A3019 RMK A01 T03100106  RH  029%=      5-min Rain = 0
KHRS 142010Z 12007KT 31/11 A3019 RMK A01 T03140113  RH  030%=      5-min Rain = 0
KHRS 142015Z 10004KT 31/11 A3019 RMK A01 T03130113  RH  030%=      5-min Rain = 0
KHRS 142020Z 12002KT 31/11 A3019 RMK A01 T03110106  RH  029%=      5-min Rain = 0
KHRS 142025Z 13004KT 31/10 A3018 RMK A01 T03120104  RH  028%=      5-min Rain = 0
KHRS 142030Z 17007G13KT 31/11 A3018 RMK A01 T03140106  RH  028%=      5-min Rain = 0
KHRS 142035Z 18006G11KT 31/11 A3018 RMK A01 T03130106  RH  028%=      5-min Rain = 0
KHRS 142040Z 18006G11KT 32/11 A3018 RMK A01 T03170109  RH  028%=      5-min Rain = 0
KHRS 142045Z 20007KT 32/11 A3017 RMK A01 T03160112  RH  029%=      5-min Rain = 0
KHRS 142050Z 21005KT 31/11 A3017 RMK A01 T03130108  RH  029%=      5-min Rain = 0
KHRS 142055Z 22004KT 31/11 A3017 RMK A01 T03120107  RH  029%=      5-min Rain = 0
KHRS 142100Z 16004KT 31/11 A3017 RMK A01 T03140107  RH  028%=      5-min Rain = 0
KHRS 142105Z 18005KT 32/11 A3017 RMK A01 T03180110  RH  028%=      5-min Rain = 0
KHRS 142110Z 12003KT 32/11 A3017 RMK A01 T03170112  RH  029%=      5-min Rain = 0
KHRS 142115Z 10004KT 32/12 A3017 RMK A01 T03190118  RH  030%=      5-min Rain = 0
KHRS 142120Z 15004KT 32/11 A3016 RMK A01 T03170109  RH  028%=      5-min Rain = 0
KHRS 142125Z 06003KT 32/11 A3016 RMK A01 T03200110  RH  028%=      5-min Rain = 0
KHRS 142130Z 11002KT 32/11 A3016 RMK A01 T03210111  RH  028%=      5-min Rain = 0
KHRS 142135Z 10004KT 32/12 A3016 RMK A01 T03230115  RH  029%=      5-min Rain = 0
KHRS 142140Z 15004KT 32/11 A3015 RMK A01 T03240106  RH  027%=      5-min Rain = 0
KHRS 142145Z 12004KT 32/11 A3015 RMK A01 T03210106  RH  027%=      5-min Rain = 0
KHRS 142150Z 08004KT 32/11 A3015 RMK A01 T03190111  RH  028%=      5-min Rain = 0
KHRS 142155Z 07003KT 32/11 A3015 RMK A01 T03170112  RH  029%=      5-min Rain = 0
KHRS 142200Z 02002KT 32/11 A3015 RMK A01 T03200113  RH  029%=      5-min Rain = 0
KHRS 142205Z 21003G9KT 33/11 A3014 RMK A01 T03260114  RH  028%=      5-min Rain = 0
KHRS 142210Z 12003G8KT 33/11 A3014 RMK A01 T03270112  RH  027%=      5-min Rain = 0
KHRS 142215Z 20004KT 33/11 A3014 RMK A01 T03280106  RH  026%=      5-min Rain = 0
KHRS 142220Z 21004KT 33/11 A3014 RMK A01 T03250105  RH  026%=      5-min Rain = 0
KHRS 142225Z 16006KT 32/11 A3014 RMK A01 T03240105  RH  026%=      5-min Rain = 0
KHRS 142230Z 15005KT 33/11 A3014 RMK A01 T03270105  RH  026%=      5-min Rain = 0
KHRS 142235Z 16004KT 33/10 A3014 RMK A01 T03280104  RH  026%=      5-min Rain = 0
KHRS 142240Z 13004KT 33/11 A3013 RMK A01 T03260106  RH  026%=      5-min Rain = 0
KHRS 142245Z 14003KT 32/10 A3013 RMK A01 T03240104  RH  027%=      5-min Rain = 0
KHRS 142250Z 33001KT 33/10 A3013 RMK A01 T03250104  RH  026%=      5-min Rain = 0
KHRS 142255Z 16002G7KT 33/10 A3013 RMK A01 T03290104  RH  026%=      5-min Rain = 0
KHRS 142300Z 17006KT 33/11 A3013 RMK A01 T03300105  RH  026%=      5-min Rain = 0
KHRS 142305Z 16004KT 33/10 A3013 RMK A01 T03280104  RH  026%=      5-min Rain = 0
KHRS 142310Z 20003KT 33/10 A3013 RMK A01 T03260104  RH  026%=      5-min Rain = 0
KHRS 142315Z 20002KT 33/10 A3013 RMK A01 T03260104  RH  026%=      5-min Rain = 0
KHRS 142320Z 16005KT 33/11 A3013 RMK A01 T03280106  RH  026%=      5-min Rain = 0
KHRS 142325Z 19004KT 32/11 A3013 RMK A01 T03230106  RH  027%=      5-min Rain = 0
KHRS 142330Z 16005KT 32/11 A3013 RMK A01 T03220106  RH  027%=      5-min Rain = 0
KHRS 142335Z 17005KT 32/11 A3013 RMK A01 T03230107  RH  027%=      5-min Rain = 0
KHRS 142340Z 16005KT 32/11 A3013 RMK A01 T03230106  RH  027%=      5-min Rain = 0
KHRS 142345Z 16006KT 32/11 A3012 RMK A01 T03220108  RH  027%=      5-min Rain = 0
KHRS 142350Z 19008KT 32/11 A3012 RMK A01 T03190108  RH  028%=      5-min Rain = 0
KHRS 142355Z 19007KT 32/11 A3012 RMK A01 T03200107  RH  028%=      5-min Rain = 0
KHRS 150000Z 18006KT 32/11 A3012 RMK A01 T03180109  RH  028%=      5-min Rain = 0
KHRS 150005Z 18006KT 32/11 A3012 RMK A01 T03170109  RH  028%=      5-min Rain = 0
KHRS 150010Z 17005KT 32/11 A3012 RMK A01 T03170110  RH  029%=      5-min Rain = 0
KHRS 150015Z 17005KT 32/11 A3012 RMK A01 T03150110  RH  029%=      5-min Rain = 0
KHRS 150020Z 17005KT 32/11 A3012 RMK A01 T03160111  RH  029%=      5-min Rain = 0
KHRS 150025Z 17004KT 32/11 A3012 RMK A01 T03180109  RH  028%=      5-min Rain = 0
KHRS 150030Z 17005KT 32/11 A3012 RMK A01 T03160109  RH  028%=      5-min Rain = 0
KHRS 150035Z 17005KT 32/11 A3013 RMK A01 T03150105  RH  028%=      5-min Rain = 0
KHRS 150040Z 17005KT 31/10 A3013 RMK A01 T03140104  RH  028%=      5-min Rain = 0
KHRS 150045Z 16005KT 31/11 A3013 RMK A01 T03140106  RH  028%=      5-min Rain = 0
KHRS 150050Z 17004KT 31/11 A3013 RMK A01 T03120108  RH  029%=      5-min Rain = 0
KHRS 150055Z 17004KT 31/11 A3013 RMK A01 T03100106  RH  029%=      5-min Rain = 0
KHRS 150100Z 17004KT 31/11 A3013 RMK A01 T03070107  RH  030%=      5-min Rain = 0
KHRS 150105Z 16004KT 30/11 A3014 RMK A01 T03020109  RH  031%=      5-min Rain = 0
KHRS 150110Z 16004KT 30/11 A3014 RMK A01 T02980113  RH  032%=      5-min Rain = 0
KHRS 150115Z 16003KT 29/12 A3014 RMK A01 T02940115  RH  034%=      5-min Rain = 0
KHRS 150120Z 16004KT 29/11 A3014 RMK A01 T02910112  RH  034%=      5-min Rain = 0
KHRS 150125Z 16004KT 29/12 A3014 RMK A01 T02880116  RH  035%=      5-min Rain = 0
KHRS 150130Z 16003KT 28/12 A3014 RMK A01 T02830117  RH  036%=      5-min Rain = 0
KHRS 150135Z 17003KT 28/12 A3014 RMK A01 T02800121  RH  038%=      5-min Rain = 0
KHRS 150140Z 16003KT 28/12 A3015 RMK A01 T02760124  RH  040%=      5-min Rain = 0
KHRS 150145Z 17003KT 27/12 A3015 RMK A01 T02740121  RH  039%=      5-min Rain = 0
KHRS 150150Z 16003KT 27/12 A3015 RMK A01 T02730122  RH  040%=      5-min Rain = 0
KHRS 150155Z 17003KT 27/12 A3015 RMK A01 T02720123  RH  040%=      5-min Rain = 0
KHRS 150200Z 16004KT 27/12 A3015 RMK A01 T02710121  RH  040%=      5-min Rain = 0
KHRS 150205Z 15003KT 27/12 A3015 RMK A01 T02690121  RH  041%=      5-min Rain = 0
KHRS 150210Z 14004KT 27/13 A3015 RMK A01 T02650133  RH  045%=      5-min Rain = 0
KHRS 150215Z 14004KT 26/15 A3016 RMK A01 T02560152  RH  054%=      5-min Rain = 0
KHRS 150220Z 13004KT 25/15 A3016 RMK A01 T02480151  RH  056%=      5-min Rain = 0
KHRS 150225Z 13004KT 24/15 A3016 RMK A01 T02430150  RH  057%=      5-min Rain = 0
KHRS 150230Z 11004KT 24/16 A3017 RMK A01 T02410158  RH  061%=      5-min Rain = 0
KHRS 150235Z 10006KT 23/16 A3017 RMK A01 T02320159  RH  065%=      5-min Rain = 0
KHRS 150240Z 11007KT 23/15 A3017 RMK A01 T02270154  RH  065%=      5-min Rain = 0
KHRS 150245Z 11007KT 23/15 A3017 RMK A01 T02290150  RH  063%=      5-min Rain = 0
KHRS 150250Z 12007KT 23/15 A3017 RMK A01 T02280148  RH  062%=      5-min Rain = 0
KHRS 150255Z 12006KT 23/15 A3017 RMK A01 T02270147  RH  062%=      5-min Rain = 0
KHRS 150300Z 11005KT 23/15 A3017 RMK A01 T02260151  RH  064%=      5-min Rain = 0
KHRS 150305Z 11005KT 22/15 A3017 RMK A01 T02230152  RH  066%=      5-min Rain = 0
KHRS 150310Z 12006KT 22/15 A3018 RMK A01 T02210148  RH  065%=      5-min Rain = 0
KHRS 150315Z 12005KT 22/15 A3018 RMK A01 T02210149  RH  065%=      5-min Rain = 0
KHRS 150320Z 12005KT 22/15 A3018 RMK A01 T02180150  RH  067%=      5-min Rain = 0
KHRS 150325Z 12005KT 22/15 A3018 RMK A01 T02160146  RH  066%=      5-min Rain = 0
KHRS 150330Z 12006KT 22/14 A3018 RMK A01 T02160144  RH  065%=      5-min Rain = 0
KHRS 150335Z 12006KT 22/15 A3019 RMK A01 T02160150  RH  068%=      5-min Rain = 0
KHRS 150340Z 12006KT 21/15 A3019 RMK A01 T02120152  RH  070%=      5-min Rain = 0
KHRS 150345Z 11005KT 21/15 A3019 RMK A01 T02090152  RH  071%=      5-min Rain = 0
KHRS 150350Z 11005KT 21/15 A3019 RMK A01 T02080151  RH  071%=      5-min Rain = 0
KHRS 150355Z 11006KT 21/15 A3019 RMK A01 T02090149  RH  070%=      5-min Rain = 0
KHRS 150400Z 11006KT 21/15 A3019 RMK A01 T02100148  RH  069%=      5-min Rain = 0
KHRS 150405Z 11007KT 21/15 A302 RMK A01 T02110147  RH  068%=      5-min Rain = 0
KHRS 150410Z 11007KT 21/15 A302 RMK A01 T02140146  RH  067%=      5-min Rain = 0
KHRS 150415Z 11007KT 22/15 A302 RMK A01 T02160145  RH  065%=      5-min Rain = 0
KHRS 150420Z 11007KT 22/15 A302 RMK A01 T02210145  RH  063%=      5-min Rain = 0
KHRS 150425Z 11007KT 22/15 A302 RMK A01 T02230146  RH  063%=      5-min Rain = 0
KHRS 150430Z 11007KT 22/15 A302 RMK A01 T02240148  RH  063%=      5-min Rain = 0
KHRS 150435Z 11007KT 23/15 A302 RMK A01 T02250148  RH  063%=      5-min Rain = 0
KHRS 150440Z 11007KT 23/15 A302 RMK A01 T02250149  RH  063%=      5-min Rain = 0
KHRS 150445Z 11007KT 23/15 A3019 RMK A01 T02260149  RH  063%=      5-min Rain = 0
KHRS 150450Z 11007KT 23/15 A3019 RMK A01 T02270149  RH  063%=      5-min Rain = 0
KHRS 150455Z 12007KT 23/15 A3019 RMK A01 T02290149  RH  062%=      5-min Rain = 0

Page generated in 0.0092 seconds.